createdAt,value
2023-01-07T00:01:34.119Z,2.70
2023-01-07T00:04:02.214Z,2.92
2023-01-07T00:06:34.835Z,2.72
2023-01-07T00:09:02.411Z,2.10
2023-01-07T00:11:37.629Z,1.92
2023-01-07T00:14:06.703Z,1.83
2023-01-07T00:16:34.688Z,2.03
2023-01-07T00:19:03.531Z,2.00
2023-01-07T00:21:30.581Z,1.60
2023-01-07T00:23:59.844Z,1.70
2023-01-07T00:26:27.844Z,2.10
2023-01-07T00:28:54.406Z,1.90
2023-01-07T00:31:24.267Z,1.88
2023-01-07T00:33:54.066Z,1.45
2023-01-07T00:36:22.584Z,1.40
2023-01-07T00:38:55.729Z,1.58
2023-01-07T00:41:22.874Z,2.15
2023-01-07T00:43:49.343Z,1.70
2023-01-07T00:46:16.210Z,1.83
2023-01-07T00:48:44.709Z,1.77
2023-01-07T00:51:12.978Z,1.90
2023-01-07T00:53:39.667Z,2.03
2023-01-07T00:56:06.641Z,1.70
2023-01-07T00:58:33.258Z,1.50
2023-01-07T01:01:01.927Z,1.80
2023-01-07T01:03:30.672Z,1.40
2023-01-07T01:06:05.097Z,1.48
2023-01-07T01:08:32.020Z,2.00
2023-01-07T01:11:07.550Z,1.60
2023-01-07T01:13:34.965Z,1.83
2023-01-07T01:16:01.565Z,1.70
2023-01-07T01:18:28.101Z,1.55
2023-01-07T01:20:54.914Z,1.73
2023-01-07T01:23:22.096Z,1.60
2023-01-07T01:25:48.616Z,1.50
2023-01-07T01:28:15.122Z,1.38
2023-01-07T01:30:41.531Z,1.38
2023-01-07T01:33:09.361Z,1.52
2023-01-07T01:35:40.064Z,1.42
2023-01-07T01:38:06.669Z,1.50
2023-01-07T01:40:33.191Z,1.42
2023-01-07T01:42:59.613Z,1.33
2023-01-07T01:45:27.085Z,1.60
2023-01-07T01:47:59.336Z,1.38
2023-01-07T01:53:11.910Z,1.50
2023-01-07T01:55:51.974Z,1.30
2023-01-07T01:58:21.958Z,1.30
2023-01-07T02:00:48.755Z,1.58
2023-01-07T02:03:19.594Z,1.50
2023-01-07T02:05:47.488Z,1.45
2023-01-07T02:08:17.307Z,1.23
2023-01-07T02:10:43.868Z,1.38
2023-01-07T02:13:29.287Z,1.40
2023-01-07T02:16:07.404Z,1.25
2023-01-07T02:18:52.491Z,1.05
2023-01-07T02:21:42.061Z,1.40
2023-01-07T02:24:17.808Z,1.17
2023-01-07T02:27:03.388Z,1.20
2023-01-07T02:29:35.933Z,1.40
2023-01-07T02:32:18.278Z,1.33
2023-01-07T02:34:59.985Z,1.17
2023-01-07T02:37:49.730Z,1.20
2023-01-07T02:40:58.424Z,1.30
2023-01-07T02:43:54.370Z,2.65
2023-01-07T02:46:43.354Z,3.03
2023-01-07T02:49:11.478Z,2.28
2023-01-07T02:51:40.503Z,1.05
2023-01-07T02:54:12.159Z,0.98
2023-01-07T02:57:00.876Z,1.02
2023-01-07T02:59:33.490Z,1.10
2023-01-07T03:02:27.432Z,1.08
2023-01-07T03:05:00.844Z,1.17
2023-01-07T03:07:41.316Z,1.10
2023-01-07T03:10:23.853Z,0.98
2023-01-07T03:12:58.019Z,1.13
2023-01-07T03:15:38.851Z,1.00
2023-01-07T03:18:22.141Z,1.05
2023-01-07T03:20:54.296Z,0.90
2023-01-07T03:23:24.927Z,0.90
2023-01-07T03:25:54.386Z,0.90
2023-01-07T03:28:25.711Z,0.95
2023-01-07T03:30:54.649Z,1.02
2023-01-07T03:33:31.690Z,0.80
2023-01-07T03:36:00.418Z,1.17
2023-01-07T03:38:29.214Z,1.15
2023-01-07T03:40:58.182Z,1.65
2023-01-07T03:43:24.817Z,1.50
2023-01-07T03:45:54.060Z,1.85
2023-01-07T03:48:20.535Z,1.50
2023-01-07T03:50:48.067Z,1.40
2023-01-07T03:53:14.564Z,1.60
2023-01-07T03:55:44.638Z,1.50
2023-01-07T03:58:11.391Z,1.33
2023-01-07T04:00:37.853Z,1.40
2023-01-07T04:03:12.979Z,1.20
2023-01-07T04:05:42.984Z,1.33
2023-01-07T04:08:10.952Z,1.70
2023-01-07T04:10:39.502Z,1.27
2023-01-07T04:13:06.050Z,1.70
2023-01-07T04:15:32.664Z,1.75
2023-01-07T04:17:59.238Z,1.42
2023-01-07T04:20:25.942Z,1.30
2023-01-07T04:22:53.601Z,1.13
2023-01-07T04:25:20.194Z,1.40
2023-01-07T04:27:46.847Z,1.10
2023-01-07T04:30:13.492Z,1.10
2023-01-07T04:32:40.002Z,1.33
2023-01-07T04:35:06.776Z,1.30
2023-01-07T04:37:33.493Z,1.00
2023-01-07T04:40:00.897Z,1.20
2023-01-07T04:42:30.458Z,1.05
2023-01-07T04:44:56.949Z,1.10
2023-01-07T04:47:23.411Z,1.38
2023-01-07T04:49:50.635Z,1.45
2023-01-07T04:52:17.305Z,1.00
2023-01-07T04:54:43.743Z,1.20
2023-01-07T04:57:10.460Z,0.90
2023-01-07T04:59:37.858Z,1.05
2023-01-07T05:02:04.681Z,1.08
2023-01-07T05:04:31.855Z,0.98
2023-01-07T05:06:58.462Z,1.10
2023-01-07T05:09:26.175Z,1.30
2023-01-07T05:11:52.838Z,1.10
2023-01-07T05:14:19.487Z,1.20
2023-01-07T05:16:49.599Z,1.17
2023-01-07T05:19:16.172Z,1.23
2023-01-07T05:21:47.658Z,1.38
2023-01-07T05:24:15.277Z,1.60
2023-01-07T05:26:41.820Z,1.30
2023-01-07T05:29:10.364Z,1.30
2023-01-07T05:31:37.907Z,1.48
2023-01-07T05:34:04.743Z,1.40
2023-01-07T05:36:31.684Z,1.40
2023-01-07T05:38:58.248Z,1.48
2023-01-07T05:41:24.743Z,1.40
2023-01-07T05:43:51.224Z,1.40
2023-01-07T05:46:17.848Z,1.33
2023-01-07T05:48:44.460Z,1.50
2023-01-07T05:51:10.862Z,1.60
2023-01-07T05:53:37.427Z,1.70
2023-01-07T05:56:04.156Z,1.73
2023-01-07T05:58:30.607Z,1.42
2023-01-07T06:00:57.149Z,1.83
2023-01-07T06:03:23.702Z,1.70
2023-01-07T06:05:50.627Z,1.70
2023-01-07T06:08:17.187Z,1.73
2023-01-07T06:10:44.421Z,1.40
2023-01-07T06:13:11.353Z,1.50
2023-01-07T06:15:37.874Z,1.60
2023-01-07T06:18:04.381Z,1.70
2023-01-07T06:20:34.571Z,2.00
2023-01-07T06:23:03.072Z,1.73
2023-01-07T06:25:29.554Z,1.60
2023-01-07T06:27:59.435Z,1.50
2023-01-07T06:30:26.275Z,1.92
2023-01-07T06:32:53.759Z,1.40
2023-01-07T06:35:20.241Z,1.80
2023-01-07T06:37:46.664Z,1.80
2023-01-07T06:40:13.786Z,1.90
2023-01-07T06:42:40.242Z,1.60
2023-01-07T06:45:07.103Z,1.67
2023-01-07T06:47:34.112Z,1.60
2023-01-07T06:50:00.547Z,1.50
2023-01-07T06:52:27.097Z,1.70
2023-01-07T06:54:53.545Z,1.70
2023-01-07T06:57:19.947Z,1.83
2023-01-07T06:59:46.450Z,1.90
2023-01-07T07:02:22.528Z,1.85
2023-01-07T07:04:49.044Z,1.92
2023-01-07T07:07:16.300Z,1.75
2023-01-07T07:09:42.808Z,2.40
2023-01-07T07:12:10.018Z,2.30
2023-01-07T07:14:36.643Z,2.00
2023-01-07T07:17:03.381Z,1.80
2023-01-07T07:19:29.806Z,2.30
2023-01-07T07:21:56.955Z,2.10
2023-01-07T07:24:23.374Z,2.20
2023-01-07T07:26:50.040Z,2.10
2023-01-07T07:29:16.589Z,2.63
2023-01-07T07:31:43.290Z,2.78
2023-01-07T07:34:10.756Z,2.20
2023-01-07T07:36:37.354Z,2.35
2023-01-07T07:39:05.091Z,1.65
2023-01-07T07:41:31.775Z,2.00
2023-01-07T07:43:59.922Z,1.83
2023-01-07T07:46:26.351Z,1.75
2023-01-07T07:48:52.796Z,1.58
2023-01-07T07:51:19.355Z,1.48
2023-01-07T07:53:45.777Z,1.38
2023-01-07T07:56:12.228Z,1.60
2023-01-07T07:58:38.811Z,1.80
2023-01-07T08:01:05.562Z,1.60
2023-01-07T08:03:32.046Z,1.33
2023-01-07T08:05:59.518Z,1.40
2023-01-07T08:08:26.007Z,1.70
2023-01-07T08:10:54.954Z,1.75
2023-01-07T08:13:21.688Z,2.13
2023-01-07T08:15:48.378Z,1.83
2023-01-07T08:18:14.856Z,1.55
2023-01-07T08:20:41.589Z,1.88
2023-01-07T08:23:09.164Z,1.83
2023-01-07T08:25:36.396Z,2.30
2023-01-07T08:28:03.399Z,1.73
2023-01-07T08:30:30.782Z,1.75
2023-01-07T08:32:58.025Z,1.90
2023-01-07T08:35:24.471Z,1.70
2023-01-07T08:37:50.984Z,1.52
2023-01-07T08:40:17.810Z,1.65
2023-01-07T08:42:44.271Z,1.35
2023-01-07T08:45:11.435Z,1.25
2023-01-07T08:47:38.358Z,1.20
2023-01-07T08:50:05.289Z,1.27
2023-01-07T08:52:31.783Z,1.00
2023-01-07T08:54:58.209Z,1.20
2023-01-07T08:57:24.662Z,0.98
2023-01-07T08:59:51.182Z,0.90
2023-01-07T09:02:18.994Z,0.80
2023-01-07T09:04:45.562Z,0.90
2023-01-07T09:07:12.406Z,0.88
2023-01-07T09:09:39.288Z,0.90
2023-01-07T09:12:07.455Z,0.70
2023-01-07T09:14:34.777Z,1.00
2023-01-07T09:17:01.210Z,1.00
2023-01-07T09:19:27.896Z,1.40
2023-01-07T09:21:54.744Z,1.23
2023-01-07T09:24:21.246Z,1.52
2023-01-07T09:26:47.700Z,1.52
2023-01-07T09:29:14.124Z,1.75
2023-01-07T09:31:40.626Z,2.97
2023-01-07T09:34:07.157Z,1.25
2023-01-07T09:36:33.870Z,1.30
2023-01-07T09:39:01.197Z,1.30
2023-01-07T09:41:52.842Z,1.33
2023-01-07T09:44:51.399Z,1.42
2023-01-07T09:47:21.930Z,1.42
2023-01-07T09:49:53.765Z,1.40
2023-01-07T09:52:29.607Z,1.40
2023-01-07T09:55:02.972Z,1.67
2023-01-07T09:59:56.557Z,1.67
2023-01-07T10:02:34.866Z,2.40
2023-01-07T10:05:27.048Z,1.58
2023-01-07T10:08:29.718Z,1.10
2023-01-07T10:11:23.232Z,1.40
2023-01-07T10:14:04.091Z,1.48
2023-01-07T10:16:47.929Z,1.30
2023-01-07T10:19:26.992Z,1.60
2023-01-07T10:21:57.427Z,1.63
2023-01-07T10:24:32.540Z,1.30
2023-01-07T10:27:04.203Z,1.40
2023-01-07T10:29:42.812Z,1.20
2023-01-07T10:32:32.045Z,1.30
2023-01-07T10:35:00.521Z,1.52
2023-01-07T10:37:32.058Z,1.50
2023-01-07T10:40:27.248Z,2.53
2023-01-07T10:43:21.345Z,1.40
2023-01-07T10:45:52.958Z,2.78
2023-01-07T10:48:26.016Z,1.65
2023-01-07T10:50:52.657Z,1.20
2023-01-07T10:53:37.171Z,1.30
2023-01-07T10:56:24.998Z,1.50
2023-01-07T10:58:51.562Z,1.30
2023-01-07T11:01:27.864Z,1.27
2023-01-07T11:03:56.614Z,2.47
2023-01-07T11:06:49.246Z,1.30
2023-01-07T11:09:30.542Z,1.30
2023-01-07T11:12:01.090Z,1.00
2023-01-07T11:14:32.600Z,1.23
2023-01-07T11:17:40.713Z,1.40
2023-01-07T11:20:07.708Z,1.17
2023-01-07T11:22:37.049Z,1.40
2023-01-07T11:25:28.383Z,1.52
2023-01-07T11:28:03.155Z,1.30
2023-01-07T11:30:33.542Z,1.40
2023-01-07T11:33:03.653Z,1.60
2023-01-07T11:35:30.739Z,1.50
2023-01-07T11:37:58.857Z,1.63
2023-01-07T11:40:34.120Z,1.80
2023-01-07T11:43:15.607Z,1.80
2023-01-07T11:46:19.982Z,1.50
2023-01-07T11:49:00.604Z,1.52
2023-01-07T11:51:37.949Z,1.83
2023-01-07T11:54:04.542Z,1.42
2023-01-07T11:56:33.457Z,2.00
2023-01-07T11:59:11.843Z,1.83
2023-01-07T12:01:42.574Z,2.05
2023-01-07T12:04:13.146Z,2.78
2023-01-07T12:06:44.259Z,2.10
2023-01-07T12:09:22.682Z,1.75
2023-01-07T12:11:50.507Z,1.85
2023-01-07T12:14:16.882Z,1.80
2023-01-07T12:16:47.796Z,2.05
2023-01-07T12:19:37.247Z,1.70
2023-01-07T12:22:13.485Z,1.65
2023-01-07T12:24:59.484Z,1.80
2023-01-07T12:27:45.811Z,1.95
2023-01-07T12:30:37.123Z,1.60
2023-01-07T12:33:28.006Z,1.77
2023-01-07T12:36:00.859Z,1.30
2023-01-07T12:38:54.025Z,1.50
2023-01-07T12:41:36.348Z,1.20
2023-01-07T12:44:09.932Z,1.60
2023-01-07T12:46:44.495Z,1.40
2023-01-07T12:49:23.094Z,1.20
2023-01-07T12:51:57.057Z,1.27
2023-01-07T12:54:40.897Z,1.17
2023-01-07T12:57:15.612Z,0.80
2023-01-07T12:59:48.472Z,0.80
2023-01-07T13:02:21.027Z,1.05
2023-01-07T13:05:19.830Z,0.80
2023-01-07T13:07:54.947Z,0.90
2023-01-07T13:10:21.438Z,0.80
2023-01-07T13:12:51.967Z,0.73
2023-01-07T13:15:21.480Z,1.00
2023-01-07T13:17:50.240Z,0.80
2023-01-07T13:20:21.479Z,0.80
2023-01-07T13:22:54.097Z,0.95
2023-01-07T13:25:40.978Z,1.00
2023-01-07T13:28:32.761Z,2.08
2023-01-07T13:31:24.787Z,1.30
2023-01-07T13:34:11.158Z,0.80
2023-01-07T13:36:51.150Z,0.90
2023-01-07T13:39:27.618Z,0.90
2023-01-07T13:41:53.978Z,0.90
2023-01-07T13:44:34.384Z,1.48
2023-01-07T13:47:03.631Z,1.10
2023-01-07T13:49:33.019Z,1.27
2023-01-07T13:52:15.564Z,1.48
2023-01-07T13:54:47.950Z,1.58
2023-01-07T13:57:23.503Z,1.70
2023-01-07T13:59:55.925Z,1.50
2023-01-07T14:02:27.191Z,1.17
2023-01-07T14:05:04.681Z,1.40
2023-01-07T14:07:31.737Z,2.00
2023-01-07T14:09:58.322Z,1.60
2023-01-07T14:12:44.457Z,2.10
2023-01-07T14:15:26.449Z,1.70
2023-01-07T14:18:31.465Z,2.10
2023-01-07T14:21:12.314Z,2.00
2023-01-07T14:24:04.870Z,1.70
2023-01-07T14:26:42.852Z,1.73
2023-01-07T14:29:26.978Z,1.50
2023-01-07T14:32:18.375Z,1.52
2023-01-07T14:34:56.767Z,1.80
2023-01-07T14:37:39.412Z,1.83
2023-01-07T14:40:30.844Z,1.50
2023-01-07T14:43:02.949Z,3.05
2023-01-07T14:45:41.952Z,3.20
2023-01-07T14:48:08.379Z,2.28
2023-01-07T14:51:10.095Z,1.50
2023-01-07T14:53:51.846Z,1.73
2023-01-07T14:56:36.769Z,1.42
2023-01-07T14:59:45.865Z,1.60
2023-01-07T15:02:37.301Z,1.27
2023-01-07T15:05:18.790Z,1.52
2023-01-07T15:07:51.804Z,1.80
2023-01-07T15:10:41.164Z,2.10
2023-01-07T15:13:33.557Z,2.10
2023-01-07T15:16:02.476Z,2.10
2023-01-07T15:18:31.559Z,2.00
2023-01-07T15:21:22.961Z,1.90
2023-01-07T15:24:04.786Z,1.73
2023-01-07T15:26:54.458Z,2.00
2023-01-07T15:29:42.318Z,1.80
2023-01-07T15:32:34.728Z,1.58
2023-01-07T15:35:09.361Z,1.80
2023-01-07T15:37:36.109Z,2.00
2023-01-07T15:40:02.891Z,2.13
2023-01-07T15:42:29.727Z,1.90
2023-01-07T15:45:00.127Z,2.08
2023-01-07T15:47:39.050Z,2.05
2023-01-07T15:50:20.782Z,2.20
2023-01-07T15:53:03.787Z,2.17
2023-01-07T15:55:42.402Z,1.80
2023-01-07T15:58:17.391Z,1.65
2023-01-07T16:00:44.639Z,1.80
2023-01-07T16:03:19.365Z,1.67
2023-01-07T16:05:46.350Z,1.55
2023-01-07T16:08:33.341Z,1.50
2023-01-07T16:11:09.136Z,1.73
2023-01-07T16:13:36.896Z,1.75
2023-01-07T16:16:05.470Z,1.88
2023-01-07T16:18:32.817Z,1.55
2023-01-07T16:21:13.834Z,1.70
2023-01-07T16:23:40.835Z,1.45
2023-01-07T16:26:12.684Z,2.17
2023-01-07T16:28:59.715Z,1.83
2023-01-07T16:31:28.984Z,2.30
2023-01-07T16:33:58.460Z,2.20
2023-01-07T16:36:35.194Z,1.98
2023-01-07T16:39:14.733Z,1.98
2023-01-07T16:41:42.271Z,2.25
2023-01-07T16:44:37.448Z,2.13
2023-01-07T16:47:18.425Z,1.60
2023-01-07T16:49:45.387Z,1.80
2023-01-07T16:52:14.417Z,1.90
2023-01-07T16:54:43.481Z,1.90
2023-01-07T16:57:09.868Z,1.92
2023-01-07T16:59:53.618Z,2.35
2023-01-07T17:02:32.498Z,2.80
2023-01-07T17:05:11.081Z,2.42
2023-01-07T17:07:38.803Z,3.00
2023-01-07T17:10:06.393Z,2.53
2023-01-07T17:12:36.945Z,3.20
2023-01-07T17:15:33.014Z,2.67
2023-01-07T17:18:11.665Z,2.85
2023-01-07T17:21:01.464Z,3.55
2023-01-07T17:23:27.935Z,3.10
2023-01-07T17:26:04.720Z,3.28
2023-01-07T17:28:34.154Z,2.83
2023-01-07T17:31:00.953Z,2.83
2023-01-07T17:33:27.642Z,3.45
2023-01-07T17:35:54.320Z,3.88
2023-01-07T17:38:21.139Z,2.70
2023-01-07T17:40:48.198Z,3.00
2023-01-07T17:43:36.636Z,2.30
2023-01-07T17:46:05.741Z,2.42
2023-01-07T17:48:34.325Z,3.03
2023-01-07T17:51:04.333Z,2.25
2023-01-07T17:53:34.040Z,2.50
2023-01-07T17:56:01.289Z,2.92
2023-01-07T17:58:33.299Z,2.85
2023-01-07T18:01:02.166Z,2.42
2023-01-07T18:03:28.896Z,2.22
2023-01-07T18:05:55.314Z,2.20
2023-01-07T18:08:21.783Z,2.22
2023-01-07T18:11:07.403Z,1.90
2023-01-07T18:13:34.010Z,1.73
2023-01-07T18:16:01.253Z,2.00
2023-01-07T18:18:31.110Z,2.03
2023-01-07T18:20:58.324Z,2.20
2023-01-07T18:23:25.244Z,2.03
2023-01-07T18:25:51.740Z,2.35
2023-01-07T18:28:18.184Z,2.25
2023-01-07T18:30:44.951Z,2.42
2023-01-07T18:33:12.046Z,2.25
2023-01-07T18:35:41.629Z,2.65
2023-01-07T18:38:13.164Z,2.53
2023-01-07T18:40:39.705Z,3.08
2023-01-07T18:43:06.272Z,2.47
2023-01-07T18:45:32.849Z,2.83
2023-01-07T18:47:59.640Z,2.22
2023-01-07T18:50:26.175Z,3.08
2023-01-07T18:52:52.827Z,3.13
2023-01-07T18:55:19.766Z,2.75
2023-01-07T18:57:46.249Z,2.72
2023-01-07T19:00:13.305Z,2.80
2023-01-07T19:02:39.742Z,3.00
2023-01-07T19:05:06.725Z,2.88
2023-01-07T19:07:33.296Z,2.47
2023-01-07T19:09:59.813Z,2.65
2023-01-07T19:12:26.245Z,3.13
2023-01-07T19:14:52.675Z,2.80
2023-01-07T19:17:19.203Z,2.92
2023-01-07T19:19:48.716Z,2.70
2023-01-07T19:22:16.225Z,2.80
2023-01-07T19:24:43.496Z,2.60
2023-01-07T19:27:10.562Z,2.40
2023-01-07T19:29:37.041Z,2.65
2023-01-07T19:32:03.898Z,2.78
2023-01-07T19:34:30.428Z,2.90
2023-01-07T19:36:56.941Z,2.60
2023-01-07T19:39:24.262Z,2.80
2023-01-07T19:41:51.242Z,2.63
2023-01-07T19:44:17.814Z,2.65
2023-01-07T19:46:44.281Z,3.00
2023-01-07T19:49:12.242Z,2.67
2023-01-07T19:51:41.230Z,2.58
2023-01-07T19:54:11.423Z,3.00
2023-01-07T19:56:39.602Z,2.53
2023-01-07T19:59:06.024Z,2.65
2023-01-07T20:01:32.595Z,2.55
2023-01-07T20:03:59.498Z,2.40
2023-01-07T20:06:28.767Z,2.55
2023-01-07T20:08:57.156Z,2.53
2023-01-07T20:11:24.910Z,2.33
2023-01-07T20:13:51.423Z,2.78
2023-01-07T20:16:23.374Z,2.70
2023-01-07T20:18:52.037Z,2.30
2023-01-07T20:21:21.361Z,2.70
2023-01-07T20:23:48.817Z,2.60
2023-01-07T20:26:23.892Z,2.88
2023-01-07T20:28:51.884Z,2.60
2023-01-07T20:31:21.048Z,2.70
2023-01-07T20:33:50.230Z,2.60
2023-01-07T20:36:20.145Z,2.55
2023-01-07T20:38:47.735Z,3.28
2023-01-07T20:41:19.851Z,2.80
2023-01-07T20:44:01.027Z,2.47
2023-01-07T20:46:29.244Z,2.70
2023-01-07T20:48:57.017Z,3.00
2023-01-07T20:51:23.886Z,2.78
2023-01-07T20:53:50.695Z,2.67
2023-01-07T20:56:19.248Z,2.88
2023-01-07T20:58:46.426Z,2.42
2023-01-07T21:01:14.732Z,2.03
2023-01-07T21:03:42.066Z,2.55
2023-01-07T21:06:11.619Z,2.55
2023-01-07T21:08:38.718Z,3.00
2023-01-07T21:11:11.833Z,2.60
2023-01-07T21:13:38.600Z,2.55
2023-01-07T21:16:06.005Z,2.50
2023-01-07T21:18:33.751Z,2.22
2023-01-07T21:21:01.581Z,2.60
2023-01-07T21:23:28.039Z,2.30
2023-01-07T21:25:54.773Z,2.00
2023-01-07T21:28:21.286Z,1.77
2023-01-07T21:30:47.798Z,1.40
2023-01-07T21:33:15.273Z,1.90
2023-01-07T21:35:41.906Z,1.65
2023-01-07T21:38:08.322Z,1.90
2023-01-07T21:40:34.902Z,1.90
2023-01-07T21:43:01.337Z,2.10
2023-01-07T21:45:27.800Z,1.70
2023-01-07T21:47:54.447Z,1.70
2023-01-07T21:50:20.947Z,1.70
2023-01-07T21:52:47.399Z,1.80
2023-01-07T21:55:13.869Z,1.83
2023-01-07T21:57:40.388Z,1.88
2023-01-07T22:00:07.346Z,1.60
2023-01-07T22:02:38.636Z,1.65
2023-01-07T22:05:06.246Z,1.67
2023-01-07T22:07:32.727Z,1.88
2023-01-07T22:09:59.164Z,2.50
2023-01-07T22:12:25.719Z,2.38
2023-01-07T22:14:52.207Z,1.83
2023-01-07T22:17:18.851Z,1.70
2023-01-07T22:19:45.296Z,1.50
2023-01-07T22:22:11.785Z,1.50
2023-01-07T22:24:38.234Z,1.60
2023-01-07T22:27:04.715Z,1.55
2023-01-07T22:29:32.173Z,1.67
2023-01-07T22:31:59.010Z,1.70
2023-01-07T22:34:25.598Z,1.80
2023-01-07T22:37:01.179Z,1.70
2023-01-07T22:39:44.136Z,1.35
2023-01-07T22:42:17.175Z,1.58
2023-01-07T22:44:46.652Z,1.40
2023-01-07T22:47:16.163Z,1.48
2023-01-07T22:49:43.207Z,1.20
2023-01-07T22:52:11.289Z,1.75
2023-01-07T22:54:38.652Z,1.35
2023-01-07T22:57:08.409Z,1.40
2023-01-07T22:59:35.723Z,1.35
2023-01-07T23:02:02.175Z,1.30
2023-01-07T23:04:29.007Z,1.38
2023-01-07T23:06:55.535Z,1.60
2023-01-07T23:09:22.006Z,1.38
2023-01-07T23:11:48.505Z,1.20
2023-01-07T23:14:16.130Z,1.20
2023-01-07T23:16:42.687Z,1.23
2023-01-07T23:19:09.251Z,1.48
2023-01-07T23:21:39.409Z,1.30
2023-01-07T23:24:06.002Z,1.25
2023-01-07T23:26:32.535Z,1.30
2023-01-07T23:28:58.934Z,1.40
2023-01-07T23:31:25.448Z,1.30
2023-01-07T23:33:51.915Z,1.33
2023-01-07T23:36:18.573Z,1.27
2023-01-07T23:38:45.210Z,1.20
2023-01-07T23:41:12.160Z,1.17
2023-01-07T23:43:38.718Z,1.10
2023-01-07T23:46:06.849Z,1.13
2023-01-07T23:48:35.687Z,1.25
2023-01-07T23:51:14.656Z,1.00
2023-01-07T23:53:41.704Z,1.10
2023-01-07T23:56:09.147Z,1.30
2023-01-07T23:58:36.639Z,1.10
